TimeEST,TemperatureF,Dew PointF,Humidity,Sea Level PressureIn,VisibilityMPH,Wind Direction,Wind SpeedMPH,Gust SpeedMPH,PrecipitationIn,Events,Conditions,WindDirDegrees,DateUTC
12:53 AM,26.1,16.0,66,30.38,10.0,ENE,9.2,-,N/A,,Overcast,70,2013-03-07 05:53:00
1:53 AM,26.1,17.1,69,30.37,10.0,East,9.2,-,N/A,,Overcast,80,2013-03-07 06:53:00
2:53 AM,25.0,17.1,72,30.40,10.0,ESE,11.5,20.7,N/A,,Overcast,120,2013-03-07 07:53:00
3:53 AM,25.0,17.1,72,30.41,10.0,East,9.2,-,N/A,,Overcast,100,2013-03-07 08:53:00
4:53 AM,25.0,17.1,72,30.39,10.0,East,5.8,-,N/A,,Overcast,80,2013-03-07 09:53:00
5:53 AM,25.0,18.0,75,30.38,10.0,ENE,6.9,-,N/A,,Overcast,70,2013-03-07 10:53:00
6:53 AM,25.0,18.0,75,30.38,10.0,NE,11.5,-,N/A,,Overcast,50,2013-03-07 11:53:00
7:53 AM,25.0,16.0,69,30.39,10.0,East,15.0,20.7,N/A,,Overcast,90,2013-03-07 12:53:00
8:53 AM,25.0,16.0,69,30.40,10.0,East,11.5,-,N/A,,Overcast,80,2013-03-07 13:53:00
9:53 AM,24.8,17.6,74,30.36,10.0,East,11.5,-,N/A,,Overcast,90,2013-03-07 14:53:00
10:53 AM,26.1,18.0,71,30.38,10.0,ENE,15.0,-,N/A,,Overcast,60,2013-03-07 15:53:00
11:53 AM,27.0,18.0,69,30.38,10.0,East,12.7,20.7,N/A,,Overcast,80,2013-03-07 16:53:00
12:53 PM,28.0,18.0,66,30.36,10.0,NNE,11.5,-,N/A,,Overcast,30,2013-03-07 17:53:00
1:53 PM,28.0,18.0,66,30.35,10.0,ENE,11.5,-,N/A,,Overcast,60,2013-03-07 18:53:00
2:53 PM,28.9,19.0,67,30.32,10.0,ENE,12.7,20.7,N/A,,Overcast,60,2013-03-07 19:53:00
3:53 PM,28.0,19.9,72,30.32,10.0,ENE,5.8,20.7,N/A,,Overcast,70,2013-03-07 20:53:00
4:53 PM,28.0,19.9,72,30.34,10.0,East,13.8,20.7,N/A,,Overcast,80,2013-03-07 21:53:00
5:53 PM,27.0,19.9,75,30.35,10.0,ENE,10.4,18.4,N/A,,Overcast,60,2013-03-07 22:53:00
6:53 PM,27.0,19.9,75,30.35,10.0,ENE,9.2,-,N/A,,Overcast,60,2013-03-07 23:53:00
7:53 PM,26.1,19.9,78,30.34,10.0,ENE,10.4,-,N/A,,Overcast,70,2013-03-08 00:53:00
8:53 PM,26.1,19.0,75,30.33,10.0,ENE,8.1,-,N/A,,Overcast,60,2013-03-08 01:53:00
9:53 PM,26.1,19.0,75,30.32,10.0,ENE,8.1,-,N/A,,Overcast,70,2013-03-08 02:53:00
10:53 PM,25.0,19.0,78,30.31,10.0,ENE,10.4,-,N/A,,Overcast,60,2013-03-08 03:53:00
11:53 PM,25.0,19.0,78,30.32,10.0,NE,8.1,18.4,N/A,,Overcast,50,2013-03-08 04:53:00